Time;durP1;ratioP1;P1;durP2;ratioP2;P2;SDS_P1;SDS_P2;PMS_P1;PMS_P2;Temp;Humidity;BMP_temperature;BMP_pressure;BME280_temperature;BME280_humidity;BME280_pressure;Samples;Min_cycle;Max_cycle;Signal;HPM_P1;HPM_P2
2022/04/04 00:02:23;;;;;;;10.33;9.33;;;;;;;2.23;90.78;101367.28;5117145;28;20193;-67
2022/04/04 00:04:50;;;;;;;11.23;10.13;;;;;;;2.19;90.77;101363.81;5117038;28;20219;-67
2022/04/04 00:07:16;;;;;;;14.93;9.57;;;;;;;2.20;90.68;101370.72;5116971;28;20195;-67
2022/04/04 00:09:43;;;;;;;9.90;9.00;;;;;;;2.16;90.89;101353.50;5116991;28;20189;-67
2022/04/04 00:12:09;;;;;;;18.63;10.17;;;;;;;2.27;90.64;101363.84;5116933;28;20190;-67
2022/04/04 00:14:36;;;;;;;12.53;10.23;;;;;;;2.18;90.71;101358.66;5116666;28;20211;-67
2022/04/04 00:17:03;;;;;;;11.07;10.30;;;;;;;2.26;90.44;101356.09;5116887;28;20588;-67
2022/04/04 00:19:29;;;;;;;10.87;10.00;;;;;;;2.27;90.50;101350.06;5116505;28;20528;-67
2022/04/04 00:21:56;;;;;;;19.90;11.17;;;;;;;2.14;90.46;101346.56;5116695;28;20193;-67
2022/04/04 00:24:24;;;;;;;12.30;11.07;;;;;;;2.20;90.42;101344.03;5116963;28;20204;-67
2022/04/04 00:26:51;;;;;;;17.03;10.93;;;;;;;2.24;90.59;101343.19;5116409;28;20192;-66
2022/04/04 00:29:18;;;;;;;10.67;9.70;;;;;;;2.16;91.00;101342.31;5116555;28;20200;-66
2022/04/04 00:31:45;;;;;;;11.10;10.07;;;;;;;2.16;91.02;101342.31;5116347;28;20616;-66
2022/04/04 00:34:12;;;;;;;12.60;10.57;;;;;;;2.12;91.41;101344.00;5116200;28;20254;-66
2022/04/04 00:36:39;;;;;;;11.50;10.37;;;;;;;2.02;91.59;101336.22;5116226;28;20242;-66
2022/04/04 00:39:06;;;;;;;10.97;9.83;;;;;;;1.98;91.96;101337.06;5116465;28;20508;-66
2022/04/04 00:41:32;;;;;;;14.00;11.90;;;;;;;1.99;92.19;101329.31;5116670;28;20179;-66
2022/04/04 00:43:59;;;;;;;13.03;11.93;;;;;;;1.99;92.46;101333.63;5116234;28;20606;-66
2022/04/04 00:46:25;;;;;;;15.13;11.17;;;;;;;2.05;92.13;101328.47;5116015;28;20712;-66
2022/04/04 00:48:52;;;;;;;12.40;11.40;;;;;;;2.02;92.26;101323.31;5115890;28;20207;-66
2022/04/04 00:51:19;;;;;;;15.27;11.10;;;;;;;2.10;92.28;101322.47;5116813;28;20577;-66
2022/04/04 00:53:45;;;;;;;12.60;10.70;;;;;;;2.11;91.94;101321.63;5116101;28;20556;-66
2022/04/04 00:56:12;;;;;;;14.60;12.27;;;;;;;2.17;91.70;101319.06;5115757;28;20613;-66
2022/04/04 00:58:39;;;;;;;15.60;11.80;;;;;;;2.15;91.86;101309.59;5116048;28;20184;-66
2022/04/04 01:01:06;;;;;;;13.33;11.93;;;;;;;2.14;92.04;101307.84;5116056;28;20185;-66
2022/04/04 01:03:33;;;;;;;12.40;11.40;;;;;;;2.11;91.89;101307.84;5115614;28;20597;-66
2022/04/04 01:06:00;;;;;;;11.50;10.70;;;;;;;2.09;92.15;101309.56;5115885;28;20233;-66
2022/04/04 01:08:26;;;;;;;11.73;10.53;;;;;;;2.12;91.99;101299.22;5115815;28;20211;-66
2022/04/04 01:10:53;;;;;;;17.97;12.23;;;;;;;2.08;92.44;101289.75;5115813;28;20242;-66
2022/04/04 01:13:19;;;;;;;12.87;11.67;;;;;;;2.07;92.56;101295.75;5116037;28;20254;-66
2022/04/04 01:15:46;;;;;;;17.27;12.60;;;;;;;2.06;92.64;101289.72;5115413;28;20711;-66
2022/04/04 01:18:13;;;;;;;12.47;11.17;;;;;;;2.10;92.42;101293.22;5115643;28;20237;-66
2022/04/04 01:20:40;;;;;;;12.30;11.20;;;;;;;2.00;93.45;101283.69;5115729;28;20248;-66
2022/04/04 01:23:07;;;;;;;12.53;11.03;;;;;;;2.00;93.04;101282.00;5115655;28;20183;-66
2022/04/04 01:25:37;;;;;;;13.47;11.80;;;;;;;2.07;92.82;101275.09;5115212;28;20199;-66
2022/04/04 01:28:05;;;;;;;12.63;11.33;;;;;;;2.05;92.86;101263.91;5115456;28;20612;-66
2022/04/04 01:30:32;;;;;;;11.93;10.83;;;;;;;2.03;93.06;101263.91;5115396;28;20236;-66
2022/04/04 01:33:00;;;;;;;12.17;11.27;;;;;;;2.10;92.80;101254.47;5115128;28;20192;-66
2022/04/04 01:35:26;;;;;;;19.87;10.73;;;;;;;2.03;92.84;101253.59;5115267;28;20221;-66
2022/04/04 01:37:53;;;;;;;13.53;10.10;;;;;;;2.09;92.72;101256.19;5115329;28;20551;-66
2022/04/04 01:40:20;;;;;;;10.77;9.77;;;;;;;2.17;92.28;101253.63;5115182;28;20588;-66
2022/04/04 01:42:49;;;;;;;11.13;10.00;;;;;;;2.13;92.74;101246.72;5114034;28;20193;-66
2022/04/04 01:45:16;;;;;;;13.20;9.77;;;;;;;2.14;92.54;101235.50;5114887;28;20212;-66
2022/04/04 01:47:42;;;;;;;11.23;10.13;;;;;;;2.13;92.52;101244.13;5115302;28;20237;-66
2022/04/04 01:50:09;;;;;;;11.20;10.20;;;;;;;2.08;92.91;101236.38;5115284;28;20197;-66
2022/04/04 01:52:35;;;;;;;17.03;9.90;;;;;;;2.13;93.27;101232.06;5115284;28;20592;-66
2022/04/04 01:55:02;;;;;;;10.07;9.20;;;;;;;2.13;92.92;101232.06;5114609;28;20269;-66
2022/04/04 01:57:29;;;;;;;10.63;9.93;;;;;;;2.11;92.90;101228.63;5114949;28;20238;-66
2022/04/04 01:59:57;;;;;;;10.80;10.03;;;;;;;2.13;92.60;101220.88;5114506;28;20246;-66
2022/04/04 02:02:24;;;;;;;11.27;10.47;;;;;;;2.09;92.09;101217.44;5113278;28;20223;-66
2022/04/04 02:04:50;;;;;;;9.53;9.07;;;;;;;2.07;92.40;101210.53;5115255;28;20209;-67
2022/04/04 02:07:17;;;;;;;11.00;10.30;;;;;;;2.06;93.00;101212.25;5114461;28;20193;-67
2022/04/04 02:09:43;;;;;;;10.67;9.97;;;;;;;2.02;92.81;101204.53;5114388;28;20201;-66
2022/04/04 02:12:11;;;;;;;10.67;9.97;;;;;;;2.02;92.97;101199.34;5114380;28;20181;-66
2022/04/04 02:14:37;;;;;;;10.73;9.87;;;;;;;2.01;93.46;101195.91;5114281;28;20253;-66
2022/04/04 02:17:06;;;;;;;11.97;10.70;;;;;;;2.07;92.88;101195.03;5114890;28;20234;-67
2022/04/04 02:19:32;;;;;;;11.47;10.70;;;;;;;1.91;93.42;101189.84;5114265;28;20164;-67
2022/04/04 02:21:58;;;;;;;15.27;10.97;;;;;;;1.91;93.20;101183.84;5114525;28;20227;-67
2022/04/04 02:24:25;;;;;;;12.30;11.30;;;;;;;1.99;92.90;101181.25;5114160;28;20208;-66
2022/04/04 02:26:52;;;;;;;15.23;12.90;;;;;;;1.83;93.18;101182.97;5114172;28;20538;-66
2022/04/04 02:29:18;;;;;;;12.33;11.33;;;;;;;1.75;93.55;101172.63;5114348;28;20548;-66
2022/04/04 02:31:45;;;;;;;13.73;10.27;;;;;;;1.92;93.54;101163.16;5114371;28;20623;-67
2022/04/04 02:34:11;;;;;;;11.33;10.30;;;;;;;1.96;93.56;101173.53;5114231;28;20214;-67
2022/04/04 02:36:38;;;;;;;12.73;11.70;;;;;;;2.02;93.20;101168.38;5113970;28;20351;-66
2022/04/04 02:39:04;;;;;;;13.70;12.27;;;;;;;2.05;92.96;101163.19;5114233;28;20182;-66
2022/04/04 02:41:31;;;;;;;12.73;11.40;;;;;;;2.12;92.60;101149.44;5114188;28;20191;-66
2022/04/04 02:43:58;;;;;;;12.43;11.27;;;;;;;2.05;92.91;101153.72;5114093;28;20238;-66
2022/04/04 02:46:26;;;;;;;18.97;11.23;;;;;;;2.09;93.05;101145.13;5114142;28;20199;-66
2022/04/04 02:48:53;;;;;;;12.53;11.40;;;;;;;2.11;92.80;101137.38;5114293;28;20203;-66
2022/04/04 02:51:19;;;;;;;16.00;12.77;;;;;;;2.16;92.48;101138.25;5113797;28;20237;-66
2022/04/04 02:53:46;;;;;;;13.17;11.97;;;;;;;2.10;92.91;101131.34;5113521;28;20231;-67
2022/04/04 02:56:31;;;;;;;13.97;11.10;;;;;;;2.17;92.84;101133.06;5113603;28;20244;-66
2022/04/04 02:59:01;;;;;;;19.37;11.93;;;;;;;2.17;92.64;101127.91;5113999;28;20179;-66
2022/04/04 03:01:28;;;;;;;13.53;12.33;;;;;;;2.20;92.32;101124.44;5114005;28;20180;-66
2022/04/04 03:03:55;;;;;;;14.30;11.60;;;;;;;2.13;92.75;101126.16;5114095;28;20205;-66
2022/04/04 03:06:22;;;;;;;12.03;10.93;;;;;;;2.16;92.53;101122.75;5114157;28;20639;-66
2022/04/04 03:08:48;;;;;;;12.80;11.73;;;;;;;2.22;92.29;101121.91;5113536;28;20204;-66
2022/04/04 03:11:15;;;;;;;18.33;12.33;;;;;;;2.26;92.02;101114.13;5114206;28;20249;-66
2022/04/04 03:13:42;;;;;;;11.63;10.83;;;;;;;2.26;91.55;101108.09;5113539;28;20297;-66
2022/04/04 03:16:09;;;;;;;12.03;10.90;;;;;;;2.37;91.53;101102.06;5113733;28;20601;-66
2022/04/04 03:18:36;;;;;;;15.83;11.23;;;;;;;2.34;91.26;101101.19;5113685;28;20239;-66
2022/04/04 03:21:04;;;;;;;11.77;10.70;;;;;;;2.29;91.47;101092.59;5113583;28;20181;-66
2022/04/04 03:23:32;;;;;;;11.07;10.13;;;;;;;2.23;91.30;101083.13;5113730;28;20251;-66
2022/04/04 03:25:59;;;;;;;10.57;9.80;;;;;;;2.19;91.22;101078.81;5114012;28;20177;-66
2022/04/04 03:28:26;;;;;;;15.33;10.70;;;;;;;2.18;91.24;101074.53;5113385;28;20565;-66
2022/04/04 03:30:52;;;;;;;10.93;9.83;;;;;;;2.06;91.33;101070.22;5113402;28;20193;-66
2022/04/04 03:33:19;;;;;;;14.47;11.73;;;;;;;2.11;91.08;101065.06;5113669;28;20242;-66
2022/04/04 03:35:46;;;;;;;10.27;9.67;;;;;;;2.08;91.07;101063.34;5113291;28;20238;-66
2022/04/04 03:38:13;;;;;;;9.70;9.17;;;;;;;2.02;91.10;101063.34;5113542;28;20192;-66
2022/04/04 03:40:41;;;;;;;10.87;10.20;;;;;;;2.14;90.83;101047.84;5114127;28;20181;-66
2022/04/04 03:43:08;;;;;;;11.43;10.33;;;;;;;2.12;90.85;101057.31;5113315;28;20723;-66
2022/04/04 03:45:35;;;;;;;17.27;11.00;;;;;;;2.14;90.30;101041.81;5113200;28;20258;-66
2022/04/04 03:48:02;;;;;;;10.70;9.73;;;;;;;2.23;89.83;101038.38;5113795;28;20187;-66
2022/04/04 03:50:29;;;;;;;9.60;8.90;;;;;;;2.14;89.72;101037.53;5113460;28;20676;-66
2022/04/04 03:52:56;;;;;;;11.77;10.87;;;;;;;2.20;89.65;101029.75;5113520;28;20191;-66
2022/04/04 03:55:29;;;;;;;11.23;10.17;;;;;;;2.27;89.28;101020.25;5112976;28;20273;-66
2022/04/04 03:57:57;;;;;;;19.27;10.07;;;;;;;2.23;89.41;101017.69;5114075;28;20182;-67
2022/04/04 04:00:25;;;;;;;11.63;10.27;;;;;;;2.11;89.42;101013.41;5113765;28;20229;-67
2022/04/04 04:02:52;;;;;;;11.73;10.73;;;;;;;2.17;89.35;101011.69;5113558;28;20691;-66
2022/04/04 04:05:20;;;;;;;11.10;10.30;;;;;;;2.20;89.03;101003.06;5113148;28;20266;-67
2022/04/04 04:07:47;;;;;;;10.83;9.97;;;;;;;2.19;88.91;101001.34;5116747;28;20230;-66
2022/04/04 04:10:14;;;;;;;13.57;10.67;;;;;;;2.19;89.04;100998.75;5116583;28;20222;-66
2022/04/04 04:12:42;;;;;;;10.93;10.13;;;;;;;2.16;88.90;100994.47;5117215;28;20184;-66
2022/04/04 04:15:11;;;;;;;10.47;9.70;;;;;;;2.12;88.96;100992.75;5116675;28;20213;-66
2022/04/04 04:17:38;;;;;;;12.23;10.27;;;;;;;2.12;89.04;100994.47;5116855;28;20219;-66
2022/04/04 04:20:29;;;;;;;10.83;9.77;;;;;;;2.06;89.30;100990.16;5116584;28;20192;-66
2022/04/04 04:23:02;;;;;;;11.33;10.33;;;;;;;2.21;88.75;100984.09;5116555;28;20683;-66
2022/04/04 04:25:30;;;;;;;11.40;10.13;;;;;;;2.28;88.52;100980.63;5116469;28;20257;-67
2022/04/04 04:27:59;;;;;;;10.97;10.13;;;;;;;2.16;88.92;100983.28;5116640;28;20648;-66
2022/04/04 04:30:27;;;;;;;11.23;10.13;;;;;;;2.19;88.61;100972.91;5116547;28;20195;-67
2022/04/04 04:32:54;;;;;;;16.70;10.63;;;;;;;2.16;88.89;100970.38;5116321;28;20253;-67
2022/04/04 04:35:21;;;;;;;10.90;9.83;;;;;;;2.14;88.71;100966.91;5116211;28;20215;-67
2022/04/04 04:37:48;;;;;;;11.30;10.23;;;;;;;2.16;88.65;100958.31;5116233;28;20184;-66
2022/04/04 04:40:14;;;;;;;11.83;10.83;;;;;;;2.26;88.27;100951.38;5116098;28;20185;-66
2022/04/04 04:42:42;;;;;;;10.80;9.80;;;;;;;2.28;88.02;100952.22;5116103;28;20242;-66
2022/04/04 04:45:10;;;;;;;11.67;9.93;;;;;;;2.28;88.01;100949.63;5116525;28;20574;-66
2022/04/04 04:47:37;;;;;;;11.57;10.57;;;;;;;2.25;88.33;100938.47;5116926;28;20176;-67
2022/04/04 04:50:10;;;;;;;12.40;10.30;;;;;;;2.32;87.81;100929.81;5116151;28;20231;-67
2022/04/04 04:52:37;;;;;;;16.50;10.97;;;;;;;2.17;88.24;100928.16;5115876;28;20191;-67
2022/04/04 04:55:04;;;;;;;12.00;10.93;;;;;;;2.21;88.15;100924.69;5115599;28;20216;-67
2022/04/04 04:57:32;;;;;;;12.93;10.47;;;;;;;2.28;88.06;100925.53;5116603;28;20180;-66
2022/04/04 04:59:58;;;;;;;14.57;11.27;;;;;;;2.23;87.95;100924.72;5115933;28;20188;-66
2022/04/04 05:02:25;;;;;;;12.37;11.13;;;;;;;2.29;87.45;100925.53;5116002;28;20240;-66
2022/04/04 05:04:51;;;;;;;12.83;11.53;;;;;;;2.17;88.08;100916.09;5115864;28;20208;-66
2022/04/04 05:07:19;;;;;;;12.73;11.60;;;;;;;2.27;87.93;100909.16;5115677;28;20192;-67
2022/04/04 05:09:46;;;;;;;14.23;11.77;;;;;;;2.26;87.53;100904.88;5115839;28;20191;-66
2022/04/04 05:12:12;;;;;;;11.70;10.43;;;;;;;2.26;87.70;100904.88;5115474;28;20238;-66
2022/04/04 05:14:43;;;;;;;12.40;11.30;;;;;;;2.29;87.42;100899.72;5115535;28;20208;-67
2022/04/04 05:17:10;;;;;;;12.13;11.10;;;;;;;2.35;87.37;100907.41;5115706;28;20179;-67
2022/04/04 05:19:36;;;;;;;21.67;11.83;;;;;;;2.45;86.39;100906.50;5115405;28;20210;-66
2022/04/04 05:22:03;;;;;;;13.37;12.07;;;;;;;2.49;86.49;100892.69;5115273;28;20662;-67
2022/04/04 05:24:29;;;;;;;14.03;12.57;;;;;;;2.54;86.18;100891.81;5115269;28;20212;-66
2022/04/04 05:26:56;;;;;;;12.53;11.47;;;;;;;2.55;86.39;100888.38;5115196;28;20187;-66
2022/04/04 05:29:26;;;;;;;13.13;11.83;;;;;;;2.50;86.69;100885.81;5115420;28;20200;-66
2022/04/04 05:31:55;;;;;;;14.07;12.37;;;;;;;2.51;86.53;100884.97;5115128;28;20229;-66
2022/04/04 05:34:22;;;;;;;13.07;11.93;;;;;;;2.50;86.58;100888.41;5115008;28;20616;-66
2022/04/04 05:36:49;;;;;;;14.03;12.83;;;;;;;2.55;86.13;100878.03;5115040;28;20189;-67
2022/04/04 05:39:15;;;;;;;14.53;11.83;;;;;;;2.58;85.72;100878.03;5114849;28;20659;-67
2022/04/04 05:41:42;;;;;;;14.67;13.17;;;;;;;2.66;85.55;100878.84;5114928;28;20178;-66
2022/04/04 05:44:09;;;;;;;12.63;11.63;;;;;;;2.64;85.91;100870.22;5114823;28;20212;-67
2022/04/04 05:46:35;;;;;;;14.43;12.60;;;;;;;2.72;85.31;100864.16;5114836;28;20632;-67
2022/04/04 05:49:02;;;;;;;17.83;15.90;;;;;;;2.76;85.44;100864.97;5115518;28;20500;-67
2022/04/04 05:51:29;;;;;;;16.10;12.23;;;;;;;2.74;84.86;100854.66;5114923;28;20281;-66
2022/04/04 05:54:15;;;;;;;24.17;11.73;;;;;;;2.77;84.93;100853.75;5114646;28;20224;-66
2022/04/04 05:56:44;;;;;;;13.27;11.80;;;;;;;2.82;84.93;100854.59;5114621;28;20570;-66
2022/04/04 05:59:14;;;;;;;13.40;12.23;;;;;;;2.83;85.14;100843.38;5114824;28;20218;-66
2022/04/04 06:01:41;;;;;;;14.97;12.17;;;;;;;2.91;84.60;100841.56;5115308;28;20524;-66
2022/04/04 06:04:08;;;;;;;13.80;12.37;;;;;;;2.89;84.43;100830.41;5114619;28;20275;-67
2022/04/04 06:06:34;;;;;;;15.80;11.20;;;;;;;2.91;83.90;100833.81;5114418;28;20181;-66
2022/04/04 06:09:00;;;;;;;12.97;11.67;;;;;;;2.96;84.22;100816.53;5114362;28;20184;-66
2022/04/04 06:11:27;;;;;;;12.33;11.17;;;;;;;2.89;83.79;100824.38;5114385;28;20184;-66
2022/04/04 06:13:53;;;;;;;12.77;11.50;;;;;;;2.96;83.67;100824.31;5114500;28;20637;-66
2022/04/04 06:16:20;;;;;;;19.27;11.67;;;;;;;2.96;83.86;100823.44;5114564;28;20230;-66
2022/04/04 06:18:46;;;;;;;12.30;10.27;;;;;;;3.01;83.49;100808.75;5114192;28;20186;-66
2022/04/04 06:21:13;;;;;;;11.87;10.90;;;;;;;2.98;83.47;100808.78;5114122;28;20234;-66
2022/04/04 06:23:40;;;;;;;13.40;10.33;;;;;;;3.12;83.13;100795.72;5113985;28;20238;-66
2022/04/04 06:26:06;;;;;;;13.50;11.10;;;;;;;3.18;82.97;100796.50;5114351;28;20185;-66
2022/04/04 06:28:34;;;;;;;19.13;10.93;;;;;;;3.19;82.90;100785.28;5113576;28;20222;-66
2022/04/04 06:31:04;;;;;;;11.23;10.23;;;;;;;3.17;83.44;100784.47;5113993;28;20197;-66
2022/04/04 06:33:31;;;;;;;13.73;10.63;;;;;;;3.38;83.03;100783.38;5113984;28;20192;-66
2022/04/04 06:35:57;;;;;;;11.07;10.17;;;;;;;3.40;83.02;100771.28;5114504;28;20205;-67
2022/04/04 06:38:24;;;;;;;11.70;10.23;;;;;;;3.34;83.43;100780.81;5114413;28;20246;-66
2022/04/04 06:40:51;;;;;;;14.40;9.67;;;;;;;3.46;83.46;100766.03;5113871;28;20185;-66
2022/04/04 06:43:19;;;;;;;11.27;10.17;;;;;;;3.55;82.62;100757.28;5114111;28;20712;-66
2022/04/04 06:45:46;;;;;;;10.70;9.90;;;;;;;3.63;81.89;100746.84;5113659;28;20691;-66
2022/04/04 06:48:12;;;;;;;11.97;10.43;;;;;;;3.66;82.63;100741.66;5114052;28;20532;-66
2022/04/04 06:50:39;;;;;;;12.30;10.47;;;;;;;3.74;82.10;100738.06;5113691;28;20755;-66
2022/04/04 06:53:05;;;;;;;13.63;10.63;;;;;;;3.81;82.11;100733.69;5113778;28;20243;-66
2022/04/04 06:55:42;;;;;;;10.70;9.57;;;;;;;3.86;81.26;100727.56;5113667;28;20337;-66
2022/04/04 06:58:08;;;;;;;10.60;9.87;;;;;;;3.95;81.12;100716.22;5114257;28;20186;-66
2022/04/04 07:00:35;;;;;;;11.80;10.57;;;;;;;3.96;81.31;100728.28;5113657;28;20189;-66
2022/04/04 07:03:01;;;;;;;13.27;10.67;;;;;;;4.02;81.51;100717.84;5114247;28;20188;-66
2022/04/04 07:05:28;;;;;;;16.97;10.60;;;;;;;4.07;81.21;100710.88;5113530;28;20752;-66
2022/04/04 07:07:55;;;;;;;11.83;10.70;;;;;;;4.16;80.99;100715.03;5113643;28;20242;-67
2022/04/04 07:10:22;;;;;;;10.87;10.07;;;;;;;4.28;81.13;100712.25;5113505;28;20211;-67
2022/04/04 07:12:48;;;;;;;15.93;9.97;;;;;;;4.22;80.72;100704.59;5113812;28;20263;-66
2022/04/04 07:15:15;;;;;;;18.83;11.60;;;;;;;4.33;80.66;100705.25;5113536;28;20616;-67
2022/04/04 07:17:43;;;;;;;10.43;9.73;;;;;;;4.33;81.38;100704.41;5113787;28;20259;-67
2022/04/04 07:20:11;;;;;;;12.07;10.93;;;;;;;4.46;81.02;100695.56;5113731;28;20601;-67
2022/04/04 07:22:39;;;;;;;11.97;10.63;;;;;;;4.51;80.60;100685.97;5113482;28;20173;-67
2022/04/04 07:25:07;;;;;;;15.13;11.73;;;;;;;4.58;80.91;100674.63;5113349;28;20208;-66
2022/04/04 07:27:35;;;;;;;12.10;10.97;;;;;;;4.53;80.95;100681.59;5113485;28;20170;-66
2022/04/04 07:30:03;;;;;;;10.80;9.93;;;;;;;4.65;80.57;100667.59;5113269;28;20205;-66
2022/04/04 07:32:30;;;;;;;10.50;9.77;;;;;;;4.64;80.31;100664.13;5113878;28;20192;-66
2022/04/04 07:34:56;;;;;;;13.73;10.77;;;;;;;4.77;79.92;100651.78;5113422;28;20258;-66
2022/04/04 07:37:23;;;;;;;11.03;10.30;;;;;;;4.69;79.47;100641.56;5113878;28;20242;-66
2022/04/04 07:39:49;;;;;;;11.47;10.03;;;;;;;4.81;80.22;100650.00;5113596;28;20620;-66
2022/04/04 07:42:16;;;;;;;12.37;11.27;;;;;;;4.97;80.00;100643.63;5116353;28;20193;-66
2022/04/04 07:44:43;;;;;;;11.63;10.77;;;;;;;5.06;79.67;100629.59;5117167;28;20201;-66
2022/04/04 07:47:09;;;;;;;11.17;10.43;;;;;;;5.13;78.87;100637.25;5117693;28;20192;-66
2022/04/04 07:49:36;;;;;;;11.90;10.87;;;;;;;5.18;78.88;100625.03;5117116;28;20178;-66
2022/04/04 07:52:03;;;;;;;10.93;10.03;;;;;;;5.12;77.42;100625.16;5117364;28;20227;-66
2022/04/04 07:54:29;;;;;;;11.37;10.40;;;;;;;5.11;77.84;100622.59;5117355;28;20243;-66
2022/04/04 07:56:56;;;;;;;11.97;10.90;;;;;;;5.12;77.13;100622.56;5117227;28;20193;-66
2022/04/04 07:59:23;;;;;;;10.97;10.13;;;;;;;5.27;78.41;100612.75;5117209;28;20190;-66
2022/04/04 08:01:50;;;;;;;11.30;9.93;;;;;;;5.36;77.60;100617.72;5117172;28;20185;-66
2022/04/04 08:04:17;;;;;;;12.13;10.87;;;;;;;5.37;77.20;100617.72;5117402;28;20681;-66
2022/04/04 08:06:44;;;;;;;11.63;10.43;;;;;;;5.41;77.58;100616.75;5116855;28;20212;-67
2022/04/04 08:09:10;;;;;;;10.87;9.93;;;;;;;5.54;78.07;100606.97;5117231;28;20238;-66
2022/04/04 08:11:37;;;;;;;12.20;10.53;;;;;;;5.60;77.60;100601.63;5116847;28;20258;-67
2022/04/04 08:14:08;;;;;;;11.77;10.60;;;;;;;5.62;77.47;100594.66;5116647;28;20323;-67
2022/04/04 08:16:35;;;;;;;16.50;10.63;;;;;;;5.63;76.63;100591.16;5117219;28;20171;-67
2022/04/04 08:19:02;;;;;;;13.50;11.50;;;;;;;5.52;76.68;100585.38;5116842;28;20199;-67
2022/04/04 08:21:30;;;;;;;19.03;11.07;;;;;;;5.66;77.26;100585.06;5116824;28;20214;-66
2022/04/04 08:23:58;;;;;;;12.10;11.00;;;;;;;5.64;76.10;100571.22;5116499;28;20213;-67
2022/04/04 08:26:24;;;;;;;11.57;10.53;;;;;;;5.71;76.43;100578.84;5116360;28;20186;-67
2022/04/04 08:28:51;;;;;;;12.63;11.57;;;;;;;5.80;75.98;100578.66;5116429;28;20185;-66
2022/04/04 08:31:17;;;;;;;11.53;10.73;;;;;;;5.78;75.90;100580.41;5116834;28;20203;-66
2022/04/04 08:33:44;;;;;;;12.47;11.20;;;;;;;5.70;76.17;100571.94;5116207;28;20185;-66
2022/04/04 08:36:11;;;;;;;21.73;10.50;;;;;;;5.75;75.50;100575.28;5116285;28;20724;-66
2022/04/04 08:38:39;;;;;;;17.80;11.80;;;;;;;5.69;76.06;100559.84;5119882;27;20192;-67
2022/04/04 08:41:06;;;;;;;11.83;10.83;;;;;;;5.71;75.60;100557.22;5136714;27;20177;-66
2022/04/04 08:43:37;;;;;;;22.37;11.10;;;;;;;5.72;76.71;100558.94;5135384;27;20234;-67
2022/04/04 08:46:06;;;;;;;18.57;11.07;;;;;;;5.85;76.82;100544.75;5137204;27;20620;-66
2022/04/04 08:48:38;;;;;;;13.13;11.93;;;;;;;5.76;76.06;100532.84;5120987;27;20198;-67
2022/04/04 08:51:09;;;;;;;11.77;10.73;;;;;;;6.02;76.22;100536.56;5125341;27;20205;-67
2022/04/04 08:53:37;;;;;;;11.40;10.50;;;;;;;6.00;75.27;100533.13;5124718;27;20677;-68
2022/04/04 08:56:06;;;;;;;17.33;10.70;;;;;;;5.96;75.75;100521.97;5119136;27;20197;-67
2022/04/04 08:58:33;;;;;;;12.17;10.83;;;;;;;5.95;76.48;100540.22;5134863;27;20190;-67
2022/04/04 09:01:00;;;;;;;17.10;11.37;;;;;;;6.08;77.30;100510.44;5136648;27;20215;-67
2022/04/04 09:03:31;;;;;;;12.43;11.33;;;;;;;5.94;76.79;100517.72;5133491;27;20286;-67
2022/04/04 09:06:01;;;;;;;20.70;12.20;;;;;;;5.87;77.85;100517.00;5117018;27;20205;-67
2022/04/04 09:08:31;;;;;;;11.50;10.63;;;;;;;5.76;77.43;100504.25;5128513;27;20243;-67
2022/04/04 09:11:00;;;;;;;13.33;10.40;;;;;;;5.62;78.91;100511.53;5130870;27;20206;-66
2022/04/04 09:13:29;;;;;;;11.27;10.50;;;;;;;5.30;79.83;100501.09;5133264;27;20235;-67
2022/04/04 09:16:06;;;;;;;12.37;11.10;;;;;;;5.43;81.18;100498.16;5130795;27;20217;-66
2022/04/04 09:18:47;;;;;;;11.43;10.63;;;;;;;5.38;80.43;100493.97;5129004;27;20614;-67
2022/04/04 09:21:22;;;;;;;10.90;10.17;;;;;;;5.28;82.22;100482.06;5136182;27;20179;-67
2022/04/04 09:23:49;;;;;;;15.30;10.87;;;;;;;5.14;83.19;100480.66;5134652;27;20176;-67
2022/04/04 09:26:30;;;;;;;11.63;10.67;;;;;;;5.28;84.46;100476.88;5121898;27;20189;-68
2022/04/04 09:29:09;;;;;;;12.40;11.30;;;;;;;5.40;82.73;100463.63;5098332;27;20632;-67
2022/04/04 09:31:36;;;;;;;13.37;10.53;;;;;;;5.36;83.36;100477.53;5114010;27;20693;-68
2022/04/04 09:34:04;;;;;;;10.40;9.53;;;;;;;5.18;81.90;100465.88;5113900;28;20298;-67
2022/04/04 09:36:32;;;;;;;10.17;9.57;;;;;;;5.09;82.86;100463.50;5113452;28;20177;-67
2022/04/04 09:39:08;;;;;;;10.73;9.67;;;;;;;5.05;83.21;100462.69;5114525;28;20182;-67
2022/04/04 09:41:39;;;;;;;11.00;10.10;;;;;;;5.19;83.97;100445.06;5113982;28;20170;-66
2022/04/04 09:44:08;;;;;;;12.30;11.20;;;;;;;5.16;85.95;100454.69;5115106;28;20603;-66
2022/04/04 09:46:40;;;;;;;10.17;9.37;;;;;;;4.91;84.94;100452.63;5115139;28;20204;-66
2022/04/04 09:49:20;;;;;;;10.50;9.40;;;;;;;4.93;85.89;100443.09;5115017;28;20185;-66
2022/04/04 09:51:50;;;;;;;12.47;11.27;;;;;;;5.06;87.23;100441.03;5114534;28;20197;-66
2022/04/04 09:54:19;;;;;;;11.07;10.37;;;;;;;5.00;85.69;100437.75;5114903;28;20220;-66
2022/04/04 09:56:47;;;;;;;13.90;11.17;;;;;;;5.01;86.50;100437.72;5114616;28;20185;-66
2022/04/04 09:59:15;;;;;;;19.67;11.50;;;;;;;4.99;86.85;100439.47;5115198;28;20238;-66
2022/04/04 10:01:43;;;;;;;13.40;12.20;;;;;;;5.01;89.53;100431.69;5114863;28;20177;-67
2022/04/04 10:04:12;;;;;;;11.30;10.67;;;;;;;5.03;89.47;100419.53;5113656;28;20244;-67
2022/04/04 10:06:46;;;;;;;10.20;9.70;;;;;;;4.96;88.98;100411.03;5115049;28;20189;-67
2022/04/04 10:09:13;;;;;;;12.70;11.30;;;;;;;4.85;89.15;100410.41;5114801;28;20170;-67
2022/04/04 10:11:40;;;;;;;12.97;11.63;;;;;;;4.87;89.35;100406.06;5114853;28;20216;-67
2022/04/04 10:14:07;;;;;;;12.87;11.50;;;;;;;4.89;91.58;100412.06;5114895;28;20539;-67
2022/04/04 10:16:34;;;;;;;11.90;11.07;;;;;;;4.79;88.85;100403.63;5114476;28;20178;-67
2022/04/04 10:19:01;;;;;;;15.53;11.77;;;;;;;4.80;91.95;100399.31;5114261;28;20193;-66
2022/04/04 10:21:27;;;;;;;12.60;11.47;;;;;;;4.85;90.70;100400.03;5114283;28;20537;-67
2022/04/04 10:24:00;;;;;;;13.00;12.00;;;;;;;4.89;93.37;100399.09;5114652;28;20173;-67
2022/04/04 10:26:30;;;;;;;14.43;12.07;;;;;;;4.98;92.65;100396.28;5096115;28;20196;-67
2022/04/04 10:29:14;;;;;;;14.17;12.73;;;;;;;5.03;93.93;100390.97;5096538;28;20227;-67
2022/04/04 10:31:52;;;;;;;12.90;11.40;;;;;;;5.03;91.86;100371.06;5113986;28;20568;-67
2022/04/04 10:34:24;;;;;;;14.67;13.07;;;;;;;5.01;93.59;100365.09;5114224;28;20202;-67
2022/04/04 10:37:07;;;;;;;17.23;13.93;;;;;;;5.05;94.93;100366.69;5113949;28;20580;-67
2022/04/04 10:39:45;;;;;;;24.30;14.77;;;;;;;5.08;94.28;100358.84;5114322;28;20174;-67
2022/04/04 10:42:27;;;;;;;20.50;15.33;;;;;;;5.03;94.62;100363.28;5114241;28;20615;-67
2022/04/04 10:45:04;;;;;;;18.87;14.70;;;;;;;5.00;95.09;100359.91;5114177;28;20225;-67
2022/04/04 10:47:31;;;;;;;21.33;14.20;;;;;;;4.97;96.88;100360.84;5113871;28;20231;-67
2022/04/04 10:50:30;;;;;;;19.50;15.47;;;;;;;4.85;97.42;100363.72;5113890;28;20249;-67
2022/04/04 10:53:01;;;;;;;19.27;15.93;;;;;;;4.89;98.29;100361.03;5114316;28;20200;-67
2022/04/04 10:55:27;;;;;;;18.67;14.97;;;;;;;4.79;98.65;100363.88;5113782;28;20214;-67
2022/04/04 10:58:19;;;;;;;17.87;16.07;;;;;;;4.84;100.00;100354.22;5114040;28;20194;-67
2022/04/04 11:00:54;;;;;;;17.93;15.17;;;;;;;4.63;100.00;100360.78;5114281;28;20674;-67
2022/04/04 11:03:28;;;;;;;18.03;15.60;;;;;;;4.53;100.00;100361.88;5114287;28;20196;-67
2022/04/04 11:09:18;;;;;;;23.57;15.33;;;;;;;4.63;100.00;100351.25;5113644;28;20661;-67
2022/04/04 11:11:47;;;;;;;16.97;15.03;;;;;;;4.56;100.00;100349.69;5114205;28;20600;-68
2022/04/04 11:14:39;;;;;;;21.20;16.00;;;;;;;4.59;100.00;100354.81;5113449;28;20216;-68
2022/04/04 11:17:06;;;;;;;16.50;14.90;;;;;;;4.51;100.00;100333.41;5117778;28;20680;-68
2022/04/04 11:20:10;;;;;;;17.37;13.43;;;;;;;4.48;100.00;100333.44;5117739;28;20592;-68
2022/04/04 11:22:45;;;;;;;19.17;16.70;;;;;;;4.60;100.00;100340.97;5115040;28;20206;-68
2022/04/04 11:25:17;;;;;;;22.63;19.07;;;;;;;4.62;100.00;100339.19;5117911;28;20697;-69
2022/04/04 11:27:48;;;;;;;21.43;17.83;;;;;;;4.59;100.00;100331.47;5117865;28;20178;-68
2022/04/04 11:30:17;;;;;;;19.17;15.17;;;;;;;4.56;100.00;100328.94;5099807;28;20266;-69